Terminal Aerodrome Forecast
Issued by NWS

Home | Current Version | Previous Version | Graphics & Text | Print | Product List | Glossary On
Versions: 1 2 3 4 5 6 7 8 9 10 11 12 13 14 15 16 17 18 19 20
000
FTUS41 KCLE 280537
TAFFDY
TAF
KFDY 280537Z 2806/2906 09005KT P6SM SKC
      TEMPO 2811/2813 5SM BR
     FM281500 19004KT P6SM BKN040
     FM282100 16005KT P6SM FEW040 BKN150=

USA.gov is the U.S. government's official web portal to all federal, state and local government web resources and services.